AirNav   Air Wisconsin Up To $57,000 Bonus
 
 949 users online  

9CO0 Police Headquarters Heliport
Denver, Colorado, USA

GOING TO DENVER?


FAA INFORMATION EFFECTIVE 08 SEPTEMBER 2022

Location

FAA Identifier: 9CO0
Lat/Long: 39-44-14.9520N 104-59-31.9340W
39-44.249200N 104-59.532233W
39.7374867,-104.9922039
(estimated)
Elevation: 5350 ft. / 1631 m (estimated)
Variation: 11E (1985)
Time zone: UTC -6 (UTC -7 during Standard Time)
Zip code: 80204

Heliport Operations

Heliport use: Private use. Permission required prior to landing
Activation date: 05/1979
Control tower: no
ARTCC: DENVER CENTER
FSS: DENVER FLIGHT SERVICE STATION
Attendance: CONTINUOUS
Wind indicator: yes
Segmented circle: no

Heliport Communications

WX AWOS-3 at BJC (12 nm NW): PHONE 720-887-8067
WX ASOS at APA (12 nm SE): PHONE 720-873-2799
WX ASOS at DEN (16 nm NE): PHONE 303-342-1920
WX AWOS-3 at EIK (17 nm N): 133.825 (303-604-4339)

Nearby radio navigation aids

VOR radial/distance  VOR name  Freq  Var
BJCr136/12.5JEFFCO VOR/DME115.4011E
DENr246/15.9DENVER VOR/DME117.9008E
FQFr268/17.4FALCON VORTAC116.3011E
DVVr233/19.4MILE HIGH VORTAC114.7008E

Heliport Services

Runway Information

Helipad H1

Dimensions: 50 x 50 ft. / 15 x 15 m
Surface: concrete
Latitude: 39-44.249167N
Longitude: 104-59.532167W
Elevation: 5350.0 ft.
Traffic pattern: leftleft

Heliport Ownership and Management from official FAA records

Ownership: Publicly-owned
Owner: DENVER POLICE DEPARTMENT
SPECIAL OPERATIONS DIV, 1331 CHEROKEE ST
DENVER, CO 80204
Phone (720) 913-6022
Manager: PATRICK PHELAN
SPECIAL OPERATIONS DIV, 1331 CHEROKEE ST
DENVER, CO 80220
Phone (720) 913-6022

Additional Remarks

FOR CD CTC DENVER APCH AT 303-342-1916.

Instrument Procedures

There are no published instrument procedures at 9CO0.

Some nearby airports with instrument procedures:

KBKF - Buckley Space Force Base (11 nm E)
KBJC - Rocky Mountain Metro Airport (12 nm NW)
KAPA - Centennial Airport (12 nm SE)
KDEN - Denver International Airport (16 nm NE)
KEIK - Erie Municipal Airport (17 nm N)
 
Loc | Ops | Rwys | IFR | FBO | Links
Com | Nav | Svcs | Stats | Notes

AirBoss

 
Area around 9CO0 (Police Headquarters Heliport)
 
Road maps at: MapQuest Bing Google
 
Aerial photo
No photo
 
Sectional chart

 
Airport distance calculator
Flying to Police Headquarters Heliport? Find the distance to fly.

From to 9CO0

Sunrise and sunset
Times for 24-Sep-2022
 Local
(UTC-6)
 Zulu
(UTC)
Morning civil twilight06:2412:24
Sunrise06:5012:50
Sunset18:5300:53
Evening civil twilight19:2001:20

Current date and time
Zulu (UTC)  24-Sep-2022 23:07:05
Local (UTC-6)  24-Sep-2022 17:07:05
 
METAR
KBKF 
11nm E 
242158Z 01008KT 10SM FEW100 28/M04 A3019 RMK AO2A SLP157 T02761044
KAPA 
12nm SE 
242253Z 02006KT 10SM FEW100 26/M04 A3020 RMK AO2 SLP173 T02611044
KBJC 
12nm NW 
242245Z 10004KT 10SM SKC 27/M03 A3020
KEIK 
17nm N 
242255Z AUTO 06006KT 10SM CLR 27/M05 A3016 RMK AO2 T02731048 PWINO
KDEN 
17nm E 
242253Z 07006KT 10SM FEW100 26/M04 A3018 RMK AO2 SLP155 T02611044
K1V5 
21nm NW 
AWOS 118.825 303-541-9540
No observation available
KBDU 
21nm NW 
242255Z AUTO 07003KT 10SM CLR 26/M01 A3018 RMK AO2
KCFO 
21nm E 
242247Z 03006KT 10SM SKC 27/M08 A3020
TAF
KBKF 
11nm E 
241700Z 2417/2523 VRB06KT 9999 SKC 510023 QNH3021INS TX24/2422Z TN07/2512Z
KAPA 
12nm SE 
241740Z 2418/2518 VRB05KT P6SM FEW100 FEW220 FM242200 08006KT P6SM FEW220 FM250700 01006KT P6SM FEW220 FM251100 19006KT P6SM SKC FM251700 04006KT P6SM SKC
KBJC 
12nm NW 
241740Z 2418/2518 VRB03KT P6SM SKC FM241900 07007KT P6SM SKC FM250500 35005KT P6SM SKC
KDEN 
17nm E 
242032Z 2421/2524 01009KT P6SM FEW100 FEW220 FM242230 04010KT P6SM FEW100 FEW220 FM250000 09006KT P6SM FEW220 FM250600 01006KT P6SM FEW220 FM251000 20006KT P6SM SKC FM251700 02007KT P6SM SKC FM252000 07007KT P6SM FEW120
NOTAMs
Click for the latest NOTAMs
NOTAMs are issued by the DoD/FAA and will open in a separate window not controlled by AirNav.

 

 
 

Would you like to see your business listed on this page?

 If your business provides an interesting product or service to pilots, flight crews, aircraft, or users of the Police Headquarters Heliport, you should consider listing it here.  To start the listing process, click on the button below
 
Add a business
 

Other Pages about Police Headquarters Heliport

Update a link
 
Copyright © AirNav, LLC. All rights reserved. Privacy Policy  Contact